sensor_id;sensor_type;location;lat;lon;timestamp;pressure;altitude;pressure_sealevel;temperature;humidity
70982;BME280;58640;51.320;9.456;2023-04-07T00:01:02;99307.16;;;7.16;78.77
70982;BME280;58640;51.320;9.456;2023-04-07T00:03:28;99319.09;;;6.96;80.47
70982;BME280;58640;51.320;9.456;2023-04-07T00:05:53;99317.94;;;6.81;81.66
70982;BME280;58640;51.320;9.456;2023-04-07T00:08:18;99314.84;;;6.86;82.07
70982;BME280;58640;51.320;9.456;2023-04-07T00:10:44;99305.19;;;6.93;82.20
70982;BME280;58640;51.320;9.456;2023-04-07T00:13:10;99307.94;;;6.83;83.53
70982;BME280;58640;51.320;9.456;2023-04-07T00:15:35;99304.13;;;6.86;83.33
70982;BME280;58640;51.320;9.456;2023-04-07T00:18:00;99315.34;;;6.89;83.48
70982;BME280;58640;51.320;9.456;2023-04-07T00:20:26;99317.28;;;6.79;85.36
70982;BME280;58640;51.320;9.456;2023-04-07T00:22:51;99310.84;;;6.90;84.92
70982;BME280;58640;51.320;9.456;2023-04-07T00:25:17;99312.13;;;7.03;83.46
70982;BME280;58640;51.320;9.456;2023-04-07T00:27:42;99299.06;;;7.00;84.15
70982;BME280;58640;51.320;9.456;2023-04-07T00:30:07;99306.56;;;6.97;84.29
70982;BME280;58640;51.320;9.456;2023-04-07T00:32:33;99310.31;;;6.86;85.33
70982;BME280;58640;51.320;9.456;2023-04-07T00:34:58;99309.63;;;6.84;85.72
70982;BME280;58640;51.320;9.456;2023-04-07T00:37:24;99309.81;;;6.83;86.90
70982;BME280;58640;51.320;9.456;2023-04-07T00:39:50;99306.69;;;6.70;87.56
70982;BME280;58640;51.320;9.456;2023-04-07T00:42:15;99304.41;;;6.57;89.10
70982;BME280;58640;51.320;9.456;2023-04-07T00:44:41;99308.44;;;6.61;88.85
70982;BME280;58640;51.320;9.456;2023-04-07T00:47:06;99304.31;;;6.67;88.71
70982;BME280;58640;51.320;9.456;2023-04-07T00:49:32;99285.16;;;6.54;89.88
70982;BME280;58640;51.320;9.456;2023-04-07T00:51:57;99292.25;;;6.63;89.45
70982;BME280;58640;51.320;9.456;2023-04-07T00:54:23;99290.00;;;6.76;88.42
70982;BME280;58640;51.320;9.456;2023-04-07T00:56:48;99293.91;;;6.64;90.00
70982;BME280;58640;51.320;9.456;2023-04-07T00:59:14;99283.69;;;6.59;90.53
70982;BME280;58640;51.320;9.456;2023-04-07T01:04:25;99285.88;;;6.64;89.92
70982;BME280;58640;51.320;9.456;2023-04-07T01:06:55;99275.81;;;6.58;91.35
70982;BME280;58640;51.320;9.456;2023-04-07T01:09:45;99280.53;;;6.64;90.84
70982;BME280;58640;51.320;9.456;2023-04-07T01:12:23;99280.03;;;6.78;89.69
70982;BME280;58640;51.320;9.456;2023-04-07T01:14:56;99285.06;;;6.63;90.80
70982;BME280;58640;51.320;9.456;2023-04-07T01:17:24;99280.94;;;6.51;92.22
70982;BME280;58640;51.320;9.456;2023-04-07T01:20:04;99279.56;;;6.65;90.86
70982;BME280;58640;51.320;9.456;2023-04-07T01:22:37;99273.69;;;6.61;91.69
70982;BME280;58640;51.320;9.456;2023-04-07T01:30:31;99271.19;;;6.42;93.45
70982;BME280;58640;51.320;9.456;2023-04-07T01:32:58;99271.97;;;6.52;92.82
70982;BME280;58640;51.320;9.456;2023-04-07T01:35:26;99268.38;;;6.44;93.30
70982;BME280;58640;51.320;9.456;2023-04-07T01:37:54;99271.56;;;6.47;93.30
70982;BME280;58640;51.320;9.456;2023-04-07T01:40:20;99267.81;;;6.58;92.21
70982;BME280;58640;51.320;9.456;2023-04-07T01:42:47;99265.75;;;6.52;92.42
70982;BME280;58640;51.320;9.456;2023-04-07T01:45:15;99264.97;;;6.59;92.37
70982;BME280;58640;51.320;9.456;2023-04-07T01:47:41;99260.09;;;6.55;92.38
70982;BME280;58640;51.320;9.456;2023-04-07T01:50:08;99256.69;;;6.45;93.77
70982;BME280;58640;51.320;9.456;2023-04-07T01:52:35;99258.38;;;6.46;93.43
70982;BME280;58640;51.320;9.456;2023-04-07T01:55:03;99260.41;;;6.52;92.93
70982;BME280;58640;51.320;9.456;2023-04-07T01:57:29;99252.94;;;6.55;92.69
70982;BME280;58640;51.320;9.456;2023-04-07T01:59:55;99257.34;;;6.64;91.74
70982;BME280;58640;51.320;9.456;2023-04-07T02:02:20;99252.16;;;6.63;91.10
70982;BME280;58640;51.320;9.456;2023-04-07T02:04:53;99258.63;;;6.78;90.56
70982;BME280;58640;51.320;9.456;2023-04-07T02:07:27;99255.22;;;6.93;89.32
70982;BME280;58640;51.320;9.456;2023-04-07T02:09:57;99254.34;;;6.67;89.98
70982;BME280;58640;51.320;9.456;2023-04-07T02:12:25;99255.06;;;6.52;89.65
70982;BME280;58640;51.320;9.456;2023-04-07T02:14:52;99251.81;;;6.40;90.16
70982;BME280;58640;51.320;9.456;2023-04-07T02:17:18;99262.47;;;6.58;88.07
70982;BME280;58640;51.320;9.456;2023-04-07T02:19:45;99250.50;;;6.62;87.75
70982;BME280;58640;51.320;9.456;2023-04-07T02:22:12;99256.41;;;6.48;88.24
70982;BME280;58640;51.320;9.456;2023-04-07T02:24:40;99244.38;;;6.52;88.01
70982;BME280;58640;51.320;9.456;2023-04-07T02:27:06;99247.38;;;6.49;88.07
70982;BME280;58640;51.320;9.456;2023-04-07T02:29:32;99244.31;;;6.44;88.48
70982;BME280;58640;51.320;9.456;2023-04-07T02:31:57;99238.88;;;6.53;87.43
70982;BME280;58640;51.320;9.456;2023-04-07T02:34:22;99242.63;;;6.60;86.45
70982;BME280;58640;51.320;9.456;2023-04-07T02:36:48;99239.50;;;6.47;86.40
70982;BME280;58640;51.320;9.456;2023-04-07T02:39:13;99242.34;;;6.46;86.95
70982;BME280;58640;51.320;9.456;2023-04-07T02:41:38;99241.19;;;6.31;87.00
70982;BME280;58640;51.320;9.456;2023-04-07T02:44:04;99244.63;;;6.41;86.47
70982;BME280;58640;51.320;9.456;2023-04-07T02:46:29;99250.59;;;6.52;84.93
70982;BME280;58640;51.320;9.456;2023-04-07T02:48:55;99249.06;;;6.32;86.55
70982;BME280;58640;51.320;9.456;2023-04-07T02:51:20;99248.91;;;6.34;86.75
70982;BME280;58640;51.320;9.456;2023-04-07T02:53:45;99244.94;;;6.38;86.81
70982;BME280;58640;51.320;9.456;2023-04-07T02:56:11;99245.91;;;6.37;86.62
70982;BME280;58640;51.320;9.456;2023-04-07T02:58:36;99236.56;;;6.33;86.84
70982;BME280;58640;51.320;9.456;2023-04-07T03:01:01;99239.00;;;6.26;86.70
70982;BME280;58640;51.320;9.456;2023-04-07T03:03:26;99243.41;;;6.35;86.60
70982;BME280;58640;51.320;9.456;2023-04-07T03:05:52;99247.63;;;6.38;85.89
70982;BME280;58640;51.320;9.456;2023-04-07T03:08:17;99240.97;;;6.42;86.02
70982;BME280;58640;51.320;9.456;2023-04-07T03:10:42;99234.09;;;6.39;86.43
70982;BME280;58640;51.320;9.456;2023-04-07T03:13:08;99230.50;;;6.31;87.11
70982;BME280;58640;51.320;9.456;2023-04-07T03:15:34;99231.91;;;6.35;86.01
70982;BME280;58640;51.320;9.456;2023-04-07T03:17:59;99233.81;;;6.25;86.52
70982;BME280;58640;51.320;9.456;2023-04-07T03:20:24;99226.09;;;6.22;86.66
70982;BME280;58640;51.320;9.456;2023-04-07T03:22:50;99220.91;;;6.20;86.41
70982;BME280;58640;51.320;9.456;2023-04-07T03:25:15;99222.34;;;6.15;87.12
70982;BME280;58640;51.320;9.456;2023-04-07T03:27:41;99220.47;;;6.25;86.80
70982;BME280;58640;51.320;9.456;2023-04-07T03:30:06;99220.75;;;6.22;87.21
70982;BME280;58640;51.320;9.456;2023-04-07T03:32:32;99219.09;;;6.21;86.95
70982;BME280;58640;51.320;9.456;2023-04-07T03:34:58;99216.72;;;6.18;87.07
70982;BME280;58640;51.320;9.456;2023-04-07T03:37:23;99216.63;;;6.27;86.93
70982;BME280;58640;51.320;9.456;2023-04-07T03:39:48;99217.78;;;6.25;86.44
70982;BME280;58640;51.320;9.456;2023-04-07T03:42:14;99214.34;;;6.32;86.18
70982;BME280;58640;51.320;9.456;2023-04-07T03:44:39;99211.44;;;6.26;86.39
70982;BME280;58640;51.320;9.456;2023-04-07T03:47:04;99204.91;;;6.20;86.72
70982;BME280;58640;51.320;9.456;2023-04-07T03:49:30;99206.88;;;6.18;87.00
70982;BME280;58640;51.320;9.456;2023-04-07T03:51:55;99215.50;;;6.30;86.32
70982;BME280;58640;51.320;9.456;2023-04-07T03:54:21;99208.53;;;6.37;86.40
70982;BME280;58640;51.320;9.456;2023-04-07T03:56:47;99210.00;;;6.31;86.03
70982;BME280;58640;51.320;9.456;2023-04-07T03:59:12;99209.00;;;6.32;85.70
70982;BME280;58640;51.320;9.456;2023-04-07T04:01:38;99207.31;;;6.31;85.31
70982;BME280;58640;51.320;9.456;2023-04-07T04:04:04;99211.50;;;6.34;85.87
70982;BME280;58640;51.320;9.456;2023-04-07T04:06:29;99219.22;;;6.19;86.26
70982;BME280;58640;51.320;9.456;2023-04-07T04:08:55;99221.31;;;6.25;86.03
70982;BME280;58640;51.320;9.456;2023-04-07T04:11:20;99219.53;;;6.16;86.86
70982;BME280;58640;51.320;9.456;2023-04-07T04:13:46;99224.50;;;6.11;87.60
70982;BME280;58640;51.320;9.456;2023-04-07T04:16:11;99225.63;;;6.26;86.29
70982;BME280;58640;51.320;9.456;2023-04-07T04:18:36;99223.97;;;6.25;86.74
70982;BME280;58640;51.320;9.456;2023-04-07T04:21:02;99229.56;;;6.14;86.96
70982;BME280;58640;51.320;9.456;2023-04-07T04:23:27;99224.78;;;6.08;87.91
70982;BME280;58640;51.320;9.456;2023-04-07T04:25:53;99229.47;;;6.06;88.43
70982;BME280;58640;51.320;9.456;2023-04-07T04:28:18;99225.72;;;6.17;87.38
70982;BME280;58640;51.320;9.456;2023-04-07T04:30:43;99224.34;;;6.30;86.24
70982;BME280;58640;51.320;9.456;2023-04-07T04:33:09;99228.69;;;6.31;86.51
70982;BME280;58640;51.320;9.456;2023-04-07T04:35:34;99221.53;;;6.32;85.50
70982;BME280;58640;51.320;9.456;2023-04-07T04:37:59;99226.34;;;6.28;86.26
70982;BME280;58640;51.320;9.456;2023-04-07T04:40:25;99226.50;;;6.27;85.60
70982;BME280;58640;51.320;9.456;2023-04-07T04:42:50;99229.06;;;6.36;85.16
70982;BME280;58640;51.320;9.456;2023-04-07T04:45:16;99232.72;;;6.35;85.65
70982;BME280;58640;51.320;9.456;2023-04-07T04:47:41;99233.19;;;6.31;85.78
70982;BME280;58640;51.320;9.456;2023-04-07T04:50:08;99227.47;;;6.26;85.63
70982;BME280;58640;51.320;9.456;2023-04-07T04:52:34;99232.81;;;6.26;85.96
70982;BME280;58640;51.320;9.456;2023-04-07T04:54:59;99236.41;;;6.34;85.38
70982;BME280;58640;51.320;9.456;2023-04-07T04:57:25;99227.22;;;6.19;85.77
70982;BME280;58640;51.320;9.456;2023-04-07T04:59:50;99226.94;;;6.40;85.32
70982;BME280;58640;51.320;9.456;2023-04-07T05:02:15;99225.25;;;6.39;85.51
70982;BME280;58640;51.320;9.456;2023-04-07T05:04:41;99240.13;;;6.41;85.75
70982;BME280;58640;51.320;9.456;2023-04-07T05:07:06;99239.75;;;6.36;86.18
70982;BME280;58640;51.320;9.456;2023-04-07T05:09:31;99242.50;;;6.44;84.75
70982;BME280;58640;51.320;9.456;2023-04-07T05:11:57;99232.84;;;6.51;84.06
70982;BME280;58640;51.320;9.456;2023-04-07T05:14:22;99239.44;;;6.57;83.95
70982;BME280;58640;51.320;9.456;2023-04-07T05:16:47;99238.56;;;6.56;82.40
70982;BME280;58640;51.320;9.456;2023-04-07T05:19:13;99240.84;;;6.69;82.00
70982;BME280;58640;51.320;9.456;2023-04-07T05:21:39;99236.44;;;6.60;82.81
70982;BME280;58640;51.320;9.456;2023-04-07T05:24:04;99241.78;;;6.60;83.18
70982;BME280;58640;51.320;9.456;2023-04-07T05:26:30;99242.88;;;6.49;83.54
70982;BME280;58640;51.320;9.456;2023-04-07T05:28:55;99241.38;;;6.72;82.35
70982;BME280;58640;51.320;9.456;2023-04-07T05:31:20;99243.59;;;6.59;82.76
70982;BME280;58640;51.320;9.456;2023-04-07T05:33:46;99239.84;;;6.44;83.69
70982;BME280;58640;51.320;9.456;2023-04-07T05:36:11;99241.41;;;6.55;82.90
70982;BME280;58640;51.320;9.456;2023-04-07T05:38:36;99248.84;;;6.69;82.62
70982;BME280;58640;51.320;9.456;2023-04-07T05:41:02;99243.34;;;6.70;82.60
70982;BME280;58640;51.320;9.456;2023-04-07T05:43:27;99240.63;;;6.88;82.22
70982;BME280;58640;51.320;9.456;2023-04-07T05:45:52;99239.44;;;6.82;81.13
70982;BME280;58640;51.320;9.456;2023-04-07T05:48:18;99246.03;;;6.70;81.80
70982;BME280;58640;51.320;9.456;2023-04-07T05:50:43;99244.28;;;6.61;83.27
70982;BME280;58640;51.320;9.456;2023-04-07T05:53:08;99242.22;;;6.73;81.97
70982;BME280;58640;51.320;9.456;2023-04-07T05:55:34;99247.47;;;6.82;81.42
70982;BME280;58640;51.320;9.456;2023-04-07T05:58:00;99248.22;;;6.92;81.30
70982;BME280;58640;51.320;9.456;2023-04-07T06:00:25;99249.28;;;6.82;80.95
70982;BME280;58640;51.320;9.456;2023-04-07T06:02:51;99245.53;;;6.92;81.06
70982;BME280;58640;51.320;9.456;2023-04-07T06:05:16;99246.09;;;6.78;81.11
70982;BME280;58640;51.320;9.456;2023-04-07T06:07:42;99244.09;;;6.80;81.38
70982;BME280;58640;51.320;9.456;2023-04-07T06:10:07;99248.97;;;7.10;79.75
70982;BME280;58640;51.320;9.456;2023-04-07T06:12:33;99250.72;;;7.19;79.50
70982;BME280;58640;51.320;9.456;2023-04-07T06:14:58;99260.94;;;7.24;79.75
70982;BME280;58640;51.320;9.456;2023-04-07T06:17:23;99255.50;;;7.41;78.82
70982;BME280;58640;51.320;9.456;2023-04-07T06:19:49;99253.81;;;7.40;78.34
70982;BME280;58640;51.320;9.456;2023-04-07T06:22:14;99261.09;;;7.56;77.12
70982;BME280;58640;51.320;9.456;2023-04-07T06:24:39;99269.03;;;7.40;78.25
70982;BME280;58640;51.320;9.456;2023-04-07T06:27:05;99262.81;;;7.31;79.05
70982;BME280;58640;51.320;9.456;2023-04-07T06:29:33;99261.38;;;7.45;77.65
70982;BME280;58640;51.320;9.456;2023-04-07T06:31:59;99263.88;;;7.80;76.68
70982;BME280;58640;51.320;9.456;2023-04-07T06:34:25;99270.88;;;7.39;77.61
70982;BME280;58640;51.320;9.456;2023-04-07T06:36:50;99269.13;;;7.56;77.41
70982;BME280;58640;51.320;9.456;2023-04-07T06:39:15;99262.59;;;7.59;78.23
70982;BME280;58640;51.320;9.456;2023-04-07T06:41:41;99265.16;;;7.76;77.75
70982;BME280;58640;51.320;9.456;2023-04-07T06:44:08;99274.28;;;7.91;76.63
70982;BME280;58640;51.320;9.456;2023-04-07T06:46:35;99275.09;;;7.92;75.90
70982;BME280;58640;51.320;9.456;2023-04-07T06:49:00;99268.34;;;7.72;77.59
70982;BME280;58640;51.320;9.456;2023-04-07T06:51:26;99275.31;;;8.14;75.94
70982;BME280;58640;51.320;9.456;2023-04-07T06:53:51;99276.16;;;8.15;75.71
70982;BME280;58640;51.320;9.456;2023-04-07T06:56:17;99283.28;;;8.48;74.63
70982;BME280;58640;51.320;9.456;2023-04-07T06:58:42;99278.25;;;8.45;74.17
70982;BME280;58640;51.320;9.456;2023-04-07T07:01:07;99282.09;;;8.58;73.23
70982;BME280;58640;51.320;9.456;2023-04-07T07:03:33;99279.75;;;8.63;72.04
70982;BME280;58640;51.320;9.456;2023-04-07T07:05:59;99282.75;;;8.44;74.38
70982;BME280;58640;51.320;9.456;2023-04-07T07:08:25;99282.28;;;8.33;73.95
70982;BME280;58640;51.320;9.456;2023-04-07T07:10:51;99283.75;;;8.27;74.68
70982;BME280;58640;51.320;9.456;2023-04-07T07:13:18;99286.19;;;8.13;75.32
70982;BME280;58640;51.320;9.456;2023-04-07T07:15:44;99288.63;;;8.32;74.71
70982;BME280;58640;51.320;9.456;2023-04-07T07:18:10;99290.78;;;8.28;73.58
70982;BME280;58640;51.320;9.456;2023-04-07T07:20:36;99296.00;;;8.62;72.20
70982;BME280;58640;51.320;9.456;2023-04-07T07:23:01;99298.34;;;8.49;72.16
70982;BME280;58640;51.320;9.456;2023-04-07T07:25:26;99294.34;;;8.45;72.03
70982;BME280;58640;51.320;9.456;2023-04-07T07:27:52;99299.56;;;8.78;71.37
70982;BME280;58640;51.320;9.456;2023-04-07T07:30:20;99293.84;;;8.73;70.81
70982;BME280;58640;51.320;9.456;2023-04-07T07:32:45;99299.03;;;8.75;70.66
70982;BME280;58640;51.320;9.456;2023-04-07T07:35:11;99306.75;;;8.70;69.93
70982;BME280;58640;51.320;9.456;2023-04-07T07:37:36;99296.00;;;8.46;70.43
70982;BME280;58640;51.320;9.456;2023-04-07T07:40:01;99310.25;;;8.46;70.76
70982;BME280;58640;51.320;9.456;2023-04-07T07:42:27;99309.75;;;8.59;70.94
70982;BME280;58640;51.320;9.456;2023-04-07T07:44:52;99322.50;;;8.65;70.97
70982;BME280;58640;51.320;9.456;2023-04-07T07:47:17;99311.59;;;8.74;70.37
70982;BME280;58640;51.320;9.456;2023-04-07T07:49:43;99312.44;;;8.75;70.01
70982;BME280;58640;51.320;9.456;2023-04-07T07:52:08;99307.25;;;8.98;68.93
70982;BME280;58640;51.320;9.456;2023-04-07T07:54:35;99317.97;;;8.89;70.17
70982;BME280;58640;51.320;9.456;2023-04-07T07:57:00;99325.34;;;9.20;69.49
70982;BME280;58640;51.320;9.456;2023-04-07T07:59:27;99320.78;;;9.36;68.21
70982;BME280;58640;51.320;9.456;2023-04-07T08:01:52;99321.63;;;9.21;68.01
70982;BME280;58640;51.320;9.456;2023-04-07T08:04:17;99320.63;;;9.30;68.66
70982;BME280;58640;51.320;9.456;2023-04-07T08:06:43;99318.91;;;9.37;68.24
70982;BME280;58640;51.320;9.456;2023-04-07T08:09:08;99327.78;;;9.53;67.11
70982;BME280;58640;51.320;9.456;2023-04-07T08:11:34;99318.19;;;9.67;67.45
70982;BME280;58640;51.320;9.456;2023-04-07T08:13:59;99328.75;;;9.76;67.31
70982;BME280;58640;51.320;9.456;2023-04-07T08:16:24;99326.47;;;9.96;65.74
70982;BME280;58640;51.320;9.456;2023-04-07T08:18:51;99324.69;;;10.27;65.11
70982;BME280;58640;51.320;9.456;2023-04-07T08:21:16;99334.09;;;9.84;65.51
70982;BME280;58640;51.320;9.456;2023-04-07T08:23:41;99337.13;;;9.73;67.08
70982;BME280;58640;51.320;9.456;2023-04-07T08:26:07;99339.03;;;10.11;65.41
70982;BME280;58640;51.320;9.456;2023-04-07T08:28:32;99337.81;;;10.22;64.72
70982;BME280;58640;51.320;9.456;2023-04-07T08:30:58;99340.81;;;10.27;62.17
70982;BME280;58640;51.320;9.456;2023-04-07T08:33:24;99337.34;;;10.02;63.76
70982;BME280;58640;51.320;9.456;2023-04-07T08:35:50;99342.25;;;9.91;63.70
70982;BME280;58640;51.320;9.456;2023-04-07T08:38:16;99340.41;;;10.38;61.93
70982;BME280;58640;51.320;9.456;2023-04-07T08:40:41;99334.09;;;10.54;61.46
70982;BME280;58640;51.320;9.456;2023-04-07T08:43:08;99336.78;;;10.54;62.38
70982;BME280;58640;51.320;9.456;2023-04-07T08:45:38;99347.59;;;11.13;58.96
70982;BME280;58640;51.320;9.456;2023-04-07T08:48:13;99353.22;;;11.26;59.21
70982;BME280;58640;51.320;9.456;2023-04-07T08:50:43;99344.69;;;11.00;60.77
70982;BME280;58640;51.320;9.456;2023-04-07T08:53:12;99343.47;;;11.40;58.68
70982;BME280;58640;51.320;9.456;2023-04-07T08:55:39;99343.22;;;11.12;59.32
70982;BME280;58640;51.320;9.456;2023-04-07T08:58:04;99345.13;;;11.41;59.92
70982;BME280;58640;51.320;9.456;2023-04-07T09:00:30;99348.28;;;11.67;57.93
70982;BME280;58640;51.320;9.456;2023-04-07T09:02:56;99342.47;;;11.55;58.31
70982;BME280;58640;51.320;9.456;2023-04-07T09:05:22;99354.28;;;12.13;57.69
70982;BME280;58640;51.320;9.456;2023-04-07T09:07:49;99345.31;;;11.91;56.92
70982;BME280;58640;51.320;9.456;2023-04-07T09:10:14;99348.25;;;12.61;55.36
70982;BME280;58640;51.320;9.456;2023-04-07T09:12:40;99349.34;;;12.31;56.05
70982;BME280;58640;51.320;9.456;2023-04-07T09:15:06;99352.94;;;11.88;58.01
70982;BME280;58640;51.320;9.456;2023-04-07T09:17:32;99347.06;;;11.84;58.40
70982;BME280;58640;51.320;9.456;2023-04-07T09:19:58;99343.94;;;11.43;59.69
70982;BME280;58640;51.320;9.456;2023-04-07T09:22:35;99348.78;;;11.48;59.07
70982;BME280;58640;51.320;9.456;2023-04-07T09:28:02;99349.16;;;13.03;55.41
70982;BME280;58640;51.320;9.456;2023-04-07T09:30:29;99342.91;;;13.03;56.42
70982;BME280;58640;51.320;9.456;2023-04-07T09:32:55;99348.13;;;13.26;55.73
70982;BME280;58640;51.320;9.456;2023-04-07T09:35:20;99341.28;;;13.57;54.76
70982;BME280;58640;51.320;9.456;2023-04-07T09:38:06;99336.25;;;14.22;52.04
70982;BME280;58640;51.320;9.456;2023-04-07T09:40:33;99342.22;;;13.71;52.89
70982;BME280;58640;51.320;9.456;2023-04-07T09:42:59;99343.50;;;14.09;51.63
70982;BME280;58640;51.320;9.456;2023-04-07T09:45:25;99349.00;;;13.60;52.18
70982;BME280;58640;51.320;9.456;2023-04-07T09:47:52;99340.22;;;13.24;53.46
70982;BME280;58640;51.320;9.456;2023-04-07T09:50:30;99333.44;;;12.92;55.89
70982;BME280;58640;51.320;9.456;2023-04-07T09:52:57;99343.47;;;12.42;56.32
70982;BME280;58640;51.320;9.456;2023-04-07T09:55:23;99334.69;;;13.11;53.64
70982;BME280;58640;51.320;9.456;2023-04-07T09:57:50;99346.53;;;13.38;53.82
70982;BME280;58640;51.320;9.456;2023-04-07T10:00:16;99352.06;;;13.78;53.74
70982;BME280;58640;51.320;9.456;2023-04-07T10:02:42;99340.72;;;14.36;51.75
70982;BME280;58640;51.320;9.456;2023-04-07T10:05:08;99332.97;;;14.27;51.75
70982;BME280;58640;51.320;9.456;2023-04-07T10:07:34;99342.69;;;14.62;52.64
70982;BME280;58640;51.320;9.456;2023-04-07T10:09:59;99340.75;;;14.43;51.09
70982;BME280;58640;51.320;9.456;2023-04-07T10:12:26;99341.72;;;13.33;52.80
70982;BME280;58640;51.320;9.456;2023-04-07T10:14:51;99351.53;;;12.56;55.34
70982;BME280;58640;51.320;9.456;2023-04-07T10:17:17;99352.72;;;12.04;56.75
70982;BME280;58640;51.320;9.456;2023-04-07T10:19:45;99346.56;;;12.24;56.96
70982;BME280;58640;51.320;9.456;2023-04-07T10:22:12;99354.34;;;12.48;55.90
70982;BME280;58640;51.320;9.456;2023-04-07T10:25:01;99351.66;;;13.05;55.48
70982;BME280;58640;51.320;9.456;2023-04-07T10:27:32;99351.38;;;14.04;52.96
70982;BME280;58640;51.320;9.456;2023-04-07T10:29:59;99350.75;;;13.74;52.41
70982;BME280;58640;51.320;9.456;2023-04-07T10:32:25;99348.44;;;12.59;56.16
70982;BME280;58640;51.320;9.456;2023-04-07T10:37:19;99345.00;;;12.86;54.37
70982;BME280;58640;51.320;9.456;2023-04-07T10:40:35;99337.63;;;12.95;56.10
70982;BME280;58640;51.320;9.456;2023-04-07T10:45:07;99358.59;;;13.35;54.87
70982;BME280;58640;51.320;9.456;2023-04-07T10:50:19;99354.00;;;12.72;54.55
70982;BME280;58640;51.320;9.456;2023-04-07T10:52:46;99347.06;;;12.84;53.64
70982;BME280;58640;51.320;9.456;2023-04-07T10:55:32;99355.81;;;13.29;53.02
70982;BME280;58640;51.320;9.456;2023-04-07T10:58:16;99352.75;;;13.59;51.97
70982;BME280;58640;51.320;9.456;2023-04-07T11:03:31;99348.59;;;14.31;51.41
70982;BME280;58640;51.320;9.456;2023-04-07T11:06:05;99351.09;;;14.33;50.59
70982;BME280;58640;51.320;9.456;2023-04-07T11:08:39;99350.59;;;13.82;50.42
70982;BME280;58640;51.320;9.456;2023-04-07T11:11:07;99352.56;;;13.61;51.30
70982;BME280;58640;51.320;9.456;2023-04-07T11:13:49;99353.06;;;13.01;51.61
70982;BME280;58640;51.320;9.456;2023-04-07T11:16:18;99353.53;;;13.26;51.03
70982;BME280;58640;51.320;9.456;2023-04-07T11:18:45;99351.75;;;13.67;50.02
70982;BME280;58640;51.320;9.456;2023-04-07T11:21:16;99340.41;;;13.01;51.37
70982;BME280;58640;51.320;9.456;2023-04-07T11:23:44;99347.50;;;13.51;51.01
70982;BME280;58640;51.320;9.456;2023-04-07T11:26:11;99340.75;;;13.13;51.87
70982;BME280;58640;51.320;9.456;2023-04-07T11:28:48;99346.97;;;12.57;53.90
70982;BME280;58640;51.320;9.456;2023-04-07T11:31:25;99355.84;;;12.51;53.65
70982;BME280;58640;51.320;9.456;2023-04-07T11:33:52;99343.84;;;12.74;53.08
70982;BME280;58640;51.320;9.456;2023-04-07T11:36:29;99351.38;;;13.00;52.45
70982;BME280;58640;51.320;9.456;2023-04-07T11:38:55;99348.78;;;13.06;52.37
70982;BME280;58640;51.320;9.456;2023-04-07T11:41:22;99347.56;;;12.94;51.33
70982;BME280;58640;51.320;9.456;2023-04-07T11:44:11;99347.25;;;12.83;52.17
70982;BME280;58640;51.320;9.456;2023-04-07T11:46:51;99349.81;;;12.70;53.16
70982;BME280;58640;51.320;9.456;2023-04-07T11:49:18;99344.88;;;12.94;51.51
70982;BME280;58640;51.320;9.456;2023-04-07T11:51:43;99348.22;;;12.75;52.62
70982;BME280;58640;51.320;9.456;2023-04-07T11:54:09;99342.69;;;12.83;52.58
70982;BME280;58640;51.320;9.456;2023-04-07T11:56:43;99346.50;;;12.89;52.03
70982;BME280;58640;51.320;9.456;2023-04-07T11:59:18;99347.88;;;13.20;52.78
70982;BME280;58640;51.320;9.456;2023-04-07T12:01:45;99343.88;;;13.16;50.28
70982;BME280;58640;51.320;9.456;2023-04-07T12:04:12;99353.38;;;13.34;50.12
70982;BME280;58640;51.320;9.456;2023-04-07T12:06:39;99349.75;;;13.75;49.14
70982;BME280;58640;51.320;9.456;2023-04-07T12:09:07;99348.22;;;14.00;49.50
70982;BME280;58640;51.320;9.456;2023-04-07T12:11:34;99344.25;;;14.30;46.61
70982;BME280;58640;51.320;9.456;2023-04-07T12:14:00;99344.69;;;14.34;46.41
70982;BME280;58640;51.320;9.456;2023-04-07T12:16:29;99349.00;;;13.88;49.61
70982;BME280;58640;51.320;9.456;2023-04-07T12:18:54;99354.03;;;13.97;48.34
70982;BME280;58640;51.320;9.456;2023-04-07T12:21:19;99358.47;;;13.77;48.20
70982;BME280;58640;51.320;9.456;2023-04-07T12:23:45;99344.75;;;14.53;45.63
70982;BME280;58640;51.320;9.456;2023-04-07T12:26:11;99363.03;;;14.11;49.88
70982;BME280;58640;51.320;9.456;2023-04-07T12:28:37;99358.41;;;13.98;48.10
70982;BME280;58640;51.320;9.456;2023-04-07T12:31:03;99358.47;;;14.11;48.14
70982;BME280;58640;51.320;9.456;2023-04-07T12:33:29;99348.19;;;13.94;48.91
70982;BME280;58640;51.320;9.456;2023-04-07T12:35:56;99345.00;;;14.18;46.06
70982;BME280;58640;51.320;9.456;2023-04-07T12:38:22;99357.03;;;14.09;47.18
70982;BME280;58640;51.320;9.456;2023-04-07T12:40:47;99350.41;;;14.18;49.56
70982;BME280;58640;51.320;9.456;2023-04-07T12:43:12;99347.91;;;14.70;46.76
70982;BME280;58640;51.320;9.456;2023-04-07T12:45:38;99341.69;;;14.76;47.34
70982;BME280;58640;51.320;9.456;2023-04-07T12:48:03;99351.13;;;15.00;45.52
70982;BME280;58640;51.320;9.456;2023-04-07T12:50:29;99353.50;;;14.15;48.30
70982;BME280;58640;51.320;9.456;2023-04-07T12:52:54;99359.72;;;14.15;47.26
70982;BME280;58640;51.320;9.456;2023-04-07T12:55:20;99354.56;;;14.20;45.06
70982;BME280;58640;51.320;9.456;2023-04-07T12:57:46;99352.50;;;14.22;45.13
70982;BME280;58640;51.320;9.456;2023-04-07T13:00:12;99355.38;;;13.25;47.76
70982;BME280;58640;51.320;9.456;2023-04-07T13:02:38;99343.84;;;13.38;47.60
70982;BME280;58640;51.320;9.456;2023-04-07T13:05:03;99354.72;;;13.02;49.72
70982;BME280;58640;51.320;9.456;2023-04-07T13:07:30;99354.31;;;13.75;48.00
70982;BME280;58640;51.320;9.456;2023-04-07T13:09:55;99357.50;;;13.85;46.73
70982;BME280;58640;51.320;9.456;2023-04-07T13:12:21;99353.50;;;13.47;46.86
70982;BME280;58640;51.320;9.456;2023-04-07T13:14:47;99352.34;;;13.13;48.31
70982;BME280;58640;51.320;9.456;2023-04-07T13:17:12;99358.41;;;13.64;47.10
70982;BME280;58640;51.320;9.456;2023-04-07T13:19:37;99355.06;;;13.62;48.56
70982;BME280;58640;51.320;9.456;2023-04-07T13:22:04;99357.16;;;13.18;50.96
70982;BME280;58640;51.320;9.456;2023-04-07T13:24:29;99358.34;;;13.30;50.75
70982;BME280;58640;51.320;9.456;2023-04-07T13:26:55;99360.00;;;13.59;49.38